Time;durP1;ratioP1;P1;durP2;ratioP2;P2;SDS_P1;SDS_P2;PMS_P1;PMS_P2;Temp;Humidity;BMP_temperature;BMP_pressure;BME280_temperature;BME280_humidity;BME280_pressure;Samples;Min_cycle;Max_cycle;Signal;HPM_P1;HPM_P2
2023/01/06 00:00:27;;;;;;;1.10;1.00;;;;;;;-145.69;100.00;52563.22;5082673;28;20666;-79
2023/01/06 00:02:55;;;;;;;3.37;0.90;;;;;;;-145.69;100.00;52575.09;5099689;28;20205;-79
2023/01/06 00:05:21;;;;;;;1.03;0.80;;;;;;;-145.69;100.00;52551.31;5099991;28;20194;-79
2023/01/06 00:07:49;;;;;;;2.27;0.90;;;;;;;-145.69;100.00;52549.34;5100338;28;20209;-78
2023/01/06 00:10:15;;;;;;;2.60;0.90;;;;;;;-145.69;100.00;52602.81;5100788;28;20198;-78
2023/01/06 00:12:44;;;;;;;2.73;0.80;;;;;;;-145.69;100.00;52592.91;5102844;28;20225;-79
2023/01/06 00:15:11;;;;;;;3.03;0.87;;;;;;;-145.69;100.00;52567.16;5099633;28;20205;-79
2023/01/06 00:17:37;;;;;;;1.10;0.80;;;;;;;-145.69;100.00;52592.91;5099714;28;20293;-79
2023/01/06 00:20:06;;;;;;;1.57;0.90;;;;;;;-145.69;100.00;52559.25;5099339;28;20197;-79
2023/01/06 00:22:33;;;;;;;1.17;0.73;;;;;;;-145.69;100.00;52614.72;5099878;28;20229;-79
2023/01/06 00:25:00;;;;;;;1.13;0.70;;;;;;;-145.69;100.00;52586.97;5099764;28;20205;-79
2023/01/06 00:27:26;;;;;;;3.40;1.00;;;;;;;-145.69;100.00;52585.00;5076075;28;20197;-78
2023/01/06 00:29:53;;;;;;;1.30;1.07;;;;;;;-145.69;100.00;52555.28;5079301;28;20201;-78
2023/01/06 00:32:20;;;;;;;2.73;0.80;;;;;;;-145.69;100.00;52547.38;5079130;28;20588;-79
2023/01/06 00:34:46;;;;;;;0.93;0.70;;;;;;;-145.69;100.00;52557.28;5079171;28;20210;-79
2023/01/06 00:37:14;;;;;;;1.93;0.97;;;;;;;-145.69;100.00;52561.22;5078848;28;20213;-78
2023/01/06 00:39:40;;;;;;;1.70;1.03;;;;;;;-145.69;100.00;52579.06;5078584;28;20209;-78
2023/01/06 00:42:07;;;;;;;1.27;1.03;;;;;;;-145.69;100.00;52592.91;5078835;28;20233;-79
2023/01/06 00:44:35;;;;;;;2.77;0.97;;;;;;;-145.69;100.00;52571.13;5079063;28;20202;-78
2023/01/06 00:47:03;;;;;;;0.93;0.80;;;;;;;-145.69;100.00;52606.78;5078937;28;20646;-79
2023/01/06 00:49:29;;;;;;;1.73;0.90;;;;;;;-145.69;100.00;52592.91;5078969;28;20694;-78
2023/01/06 00:51:56;;;;;;;0.93;0.83;;;;;;;-145.69;100.00;52579.06;5078737;28;20195;-78
2023/01/06 00:54:23;;;;;;;2.10;1.03;;;;;;;-145.69;100.00;52590.94;5079096;28;20555;-78
2023/01/06 00:56:52;;;;;;;0.83;0.63;;;;;;;-145.69;100.00;52594.91;5078590;28;20213;-78
2023/01/06 00:59:21;;;;;;;1.60;0.97;;;;;;;-145.69;100.00;52579.06;5078690;28;20195;-78
2023/01/06 01:01:51;;;;;;;1.83;0.77;;;;;;;-145.69;100.00;52551.31;5078804;28;20199;-79
2023/01/06 01:04:18;;;;;;;0.90;0.70;;;;;;;-145.69;100.00;52581.03;5078803;28;20216;-79
2023/01/06 01:06:46;;;;;;;0.80;0.80;;;;;;;-145.69;100.00;52571.13;5078506;28;20658;-79
2023/01/06 01:09:14;;;;;;;0.80;0.80;;;;;;;-145.69;100.00;52586.97;5075727;28;20202;-79
2023/01/06 01:14:26;;;;;;;2.30;0.97;;;;;;;-145.69;100.00;52551.31;5075633;28;20206;-79
2023/01/06 01:16:53;;;;;;;3.70;1.00;;;;;;;-145.69;100.00;52575.09;5075263;28;20209;-79
2023/01/06 01:19:20;;;;;;;1.10;0.90;;;;;;;-145.69;100.00;52551.31;5075588;28;20237;-79
2023/01/06 01:21:47;;;;;;;2.73;1.00;;;;;;;-145.69;100.00;52563.22;5075542;28;20203;-79
2023/01/06 01:24:14;;;;;;;1.20;0.77;;;;;;;-145.69;100.00;52586.97;5075293;28;20203;-79
2023/01/06 01:26:42;;;;;;;2.50;0.80;;;;;;;-145.69;100.00;52592.91;5075020;28;20205;-79
2023/01/06 01:29:10;;;;;;;1.80;1.03;;;;;;;-145.69;100.00;52551.31;5075196;28;20213;-79
2023/01/06 01:31:37;;;;;;;1.20;1.03;;;;;;;-145.69;100.00;52596.88;5075328;28;20194;-79
2023/01/06 01:34:03;;;;;;;2.47;1.20;;;;;;;-145.69;100.00;52579.06;5075361;28;20237;-79
2023/01/06 01:36:30;;;;;;;1.40;1.00;;;;;;;-145.69;100.00;52583.00;5074693;28;20657;-78
2023/01/06 01:38:57;;;;;;;1.23;1.00;;;;;;;-145.69;100.00;52606.78;5074961;28;20289;-79
2023/01/06 01:41:25;;;;;;;1.20;0.90;;;;;;;-145.69;100.00;52586.97;5074903;28;20233;-78
2023/01/06 01:43:55;;;;;;;1.40;0.90;;;;;;;-145.69;100.00;52598.84;5074942;28;20203;-79
2023/01/06 01:46:26;;;;;;;1.83;0.80;;;;;;;-145.69;100.00;52594.91;5075127;28;20313;-78
2023/01/06 01:48:54;;;;;;;0.93;0.60;;;;;;;-145.69;100.00;52553.31;5075087;28;20203;-79
2023/01/06 01:51:37;;;;;;;2.28;1.10;;;;;;;-145.69;100.00;52598.84;5073822;28;20438;-78
2023/01/06 01:54:07;;;;;;;0.77;0.77;;;;;;;-145.69;100.00;52543.41;5074760;28;20230;-79
2023/01/06 01:56:41;;;;;;;1.10;0.80;;;;;;;-145.69;100.00;52571.13;5074677;28;20725;-79
2023/01/06 01:59:13;;;;;;;4.77;0.90;;;;;;;-145.69;100.00;52559.25;5070964;28;20282;-78
2023/01/06 02:01:39;;;;;;;1.30;0.70;;;;;;;-145.69;100.00;52575.09;5074852;28;20206;-78
2023/01/06 02:04:07;;;;;;;2.53;1.33;;;;;;;-145.69;100.00;52557.28;5074255;28;20203;-79
2023/01/06 02:06:34;;;;;;;3.07;0.70;;;;;;;-145.69;100.00;52602.81;5074457;28;20661;-78
2023/01/06 02:09:09;;;;;;;1.50;1.07;;;;;;;-145.69;100.00;52602.81;5074277;28;20285;-78
2023/01/06 02:11:37;;;;;;;1.43;0.90;;;;;;;-145.69;100.00;52583.00;5074371;28;20209;-79
2023/01/06 02:14:11;;;;;;;1.27;0.80;;;;;;;-145.69;100.00;52590.94;5074178;28;20230;-79
2023/01/06 02:16:50;;;;;;;1.03;0.97;;;;;;;-145.69;100.00;52622.63;5074082;28;20654;-79
2023/01/06 02:19:43;;;;;;;0.80;0.70;;;;;;;-145.69;100.00;52575.09;5070935;28;20195;-79
2023/01/06 02:22:30;;;;;;;1.10;0.87;;;;;;;-145.69;100.00;52559.25;5074158;28;20488;-79
2023/01/06 02:25:27;;;;;;;2.47;0.90;;;;;;;-145.69;100.00;52602.81;5074264;28;20206;-79
2023/01/06 02:28:21;;;;;;;5.87;0.80;;;;;;;-145.69;100.00;52553.31;5073671;28;20209;-79
2023/01/06 02:31:28;;;;;;;1.23;0.90;;;;;;;-145.69;100.00;52616.69;5074173;28;20210;-79
2023/01/06 02:33:59;;;;;;;1.97;1.00;;;;;;;-145.69;100.00;52610.75;5073147;28;20313;-79
2023/01/06 02:36:34;;;;;;;0.90;0.80;;;;;;;-145.69;100.00;52602.81;5073610;28;20203;-79
2023/01/06 02:39:17;;;;;;;1.13;1.00;;;;;;;-145.69;100.00;52594.91;5072183;28;20202;-79
2023/01/06 02:41:52;;;;;;;3.77;0.90;;;;;;;-145.69;100.00;52590.94;5073589;28;20238;-79
2023/01/06 02:44:27;;;;;;;1.10;0.90;;;;;;;-145.69;100.00;52622.63;5073714;28;20213;-79
2023/01/06 02:47:09;;;;;;;1.70;1.10;;;;;;;-145.69;100.00;52590.94;5073881;28;20562;-79
2023/01/06 02:49:44;;;;;;;1.53;0.80;;;;;;;-145.69;100.00;52594.91;5073811;28;20209;-79
2023/01/06 02:52:19;;;;;;;2.77;0.90;;;;;;;-145.69;100.00;52620.66;5073753;28;20206;-79
2023/01/06 02:54:53;;;;;;;1.80;1.00;;;;;;;-145.69;100.00;52598.84;5073473;28;20709;-80
2023/01/06 02:57:26;;;;;;;3.63;0.90;;;;;;;-145.69;100.00;52590.94;5073168;28;20190;-79
2023/01/06 03:00:02;;;;;;;1.23;1.10;;;;;;;-145.69;100.00;52610.75;5074632;28;20286;-79
2023/01/06 03:02:32;;;;;;;1.30;0.87;;;;;;;-145.69;100.00;52620.66;5073438;28;20679;-78
2023/01/06 03:05:02;;;;;;;2.17;1.00;;;;;;;-145.69;100.00;52614.72;5073199;28;20666;-78
2023/01/06 03:07:32;;;;;;;0.90;0.70;;;;;;;-145.69;100.00;52638.47;5073593;28;20543;-79
2023/01/06 03:10:01;;;;;;;1.13;0.90;;;;;;;-145.69;100.00;52634.50;5073125;28;20658;-79
2023/01/06 03:12:35;;;;;;;1.63;0.80;;;;;;;-145.69;100.00;52650.34;5073472;28;20203;-79
2023/01/06 03:15:02;;;;;;;1.50;0.90;;;;;;;-145.69;100.00;52606.78;5073212;28;20670;-79
2023/01/06 03:17:30;;;;;;;0.90;0.90;;;;;;;-145.69;100.00;52616.69;5073142;28;20199;-79
2023/01/06 03:19:57;;;;;;;4.00;0.97;;;;;;;-145.69;100.00;52583.00;5073338;28;20210;-79
2023/01/06 03:22:24;;;;;;;3.53;0.90;;;;;;;-145.69;100.00;52646.41;5073305;28;20206;-78
2023/01/06 03:24:50;;;;;;;5.67;1.03;;;;;;;-145.69;100.00;52614.72;5073133;28;20692;-78
2023/01/06 03:27:19;;;;;;;3.47;0.90;;;;;;;-145.69;100.00;52606.78;5072768;28;20681;-78
2023/01/06 03:29:46;;;;;;;1.13;0.87;;;;;;;-145.69;100.00;52590.94;5073062;28;20202;-78
2023/01/06 03:32:18;;;;;;;0.87;0.87;;;;;;;-145.69;100.00;52646.41;5072396;28;20207;-78
2023/01/06 03:35:04;;;;;;;1.47;0.80;;;;;;;-145.69;100.00;52622.63;5072687;28;20236;-78
2023/01/06 03:37:41;;;;;;;2.23;0.80;;;;;;;-145.69;100.00;52622.63;5053132;28;20207;-79
2023/01/06 03:40:15;;;;;;;0.97;0.90;;;;;;;-145.69;100.00;52575.09;5052928;28;20222;-79
2023/01/06 03:45:41;;;;;;;4.17;1.00;;;;;;;-145.69;100.00;52628.56;5052913;28;20222;-78
2023/01/06 03:48:15;;;;;;;2.67;0.80;;;;;;;-145.69;100.00;52620.66;5052998;28;20199;-79
2023/01/06 03:50:49;;;;;;;0.70;0.70;;;;;;;-145.69;100.00;52638.47;5052724;28;20203;-79
2023/01/06 03:53:25;;;;;;;1.90;0.83;;;;;;;-145.69;100.00;52614.72;5052990;28;20230;-79
2023/01/06 03:55:57;;;;;;;0.70;0.70;;;;;;;-145.69;100.00;52650.34;5052717;28;20203;-79
2023/01/06 03:58:26;;;;;;;2.13;0.83;;;;;;;-145.69;100.00;52632.53;5072671;28;20206;-79
2023/01/06 04:00:54;;;;;;;0.70;0.70;;;;;;;-145.69;100.00;52594.91;5072627;28;20198;-79
2023/01/06 04:03:24;;;;;;;1.60;0.90;;;;;;;-145.69;100.00;52606.78;5072838;28;20206;-78
2023/01/06 04:05:53;;;;;;;1.30;0.90;;;;;;;-145.69;100.00;52610.75;5072918;28;20620;-77
2023/01/06 04:08:20;;;;;;;2.43;0.87;;;;;;;-145.69;100.00;52630.53;5072693;28;20604;-78
2023/01/06 04:10:46;;;;;;;1.00;0.90;;;;;;;-145.69;100.00;52644.41;5072689;28;20206;-79
2023/01/06 04:13:12;;;;;;;2.93;0.97;;;;;;;-145.69;100.00;52604.81;5072483;28;20210;-79
2023/01/06 04:15:38;;;;;;;0.80;0.80;;;;;;;-145.69;100.00;52602.81;5072620;28;20224;-79
2023/01/06 04:18:05;;;;;;;1.90;0.80;;;;;;;-145.69;100.00;52606.78;5072511;28;20199;-79
2023/01/06 04:20:32;;;;;;;0.97;0.90;;;;;;;-145.69;100.00;52622.63;5070024;28;20203;-78
2023/01/06 04:23:00;;;;;;;1.07;0.90;;;;;;;-145.69;100.00;52646.41;5072741;28;20195;-79
2023/01/06 04:25:26;;;;;;;1.93;1.27;;;;;;;-145.69;100.00;52666.19;5072566;28;20199;-79
2023/01/06 04:27:53;;;;;;;2.63;0.97;;;;;;;-145.69;100.00;52606.78;5071883;28;20206;-78
2023/01/06 04:30:19;;;;;;;1.37;0.80;;;;;;;-145.69;100.00;52594.91;5072397;28;20286;-78
2023/01/06 04:32:46;;;;;;;0.80;0.80;;;;;;;-145.69;100.00;52642.44;5072561;28;20202;-78
2023/01/06 04:35:12;;;;;;;2.87;0.90;;;;;;;-145.69;100.00;52610.75;5072954;28;20230;-78
2023/01/06 04:37:39;;;;;;;1.20;0.80;;;;;;;-145.69;100.00;52654.31;5072351;28;20213;-78
2023/01/06 04:40:08;;;;;;;1.00;0.80;;;;;;;-145.69;100.00;52616.69;5072273;28;20199;-79
2023/01/06 04:45:15;;;;;;;1.00;0.93;;;;;;;-145.69;100.00;52596.88;5074845;28;20203;-79
2023/01/06 04:47:42;;;;;;;0.83;0.83;;;;;;;-145.69;100.00;52630.53;5075922;28;20574;-78
2023/01/06 04:50:10;;;;;;;1.90;1.13;;;;;;;-145.69;100.00;52569.16;5075896;28;20226;-78
2023/01/06 04:52:36;;;;;;;0.93;0.90;;;;;;;-145.69;100.00;52652.34;5075936;28;20194;-78
2023/01/06 04:55:03;;;;;;;1.30;0.90;;;;;;;-145.69;100.00;52626.59;5075699;28;20593;-78
2023/01/06 04:57:31;;;;;;;2.27;0.90;;;;;;;-145.69;100.00;52636.50;5075597;28;20199;-78
2023/01/06 04:59:57;;;;;;;1.00;0.80;;;;;;;-145.69;100.00;52602.81;5075566;28;20203;-78
2023/01/06 05:02:24;;;;;;;4.83;2.53;;;;;;;-145.69;100.00;52630.53;5075844;28;20210;-78
2023/01/06 05:04:50;;;;;;;2.70;1.00;;;;;;;-145.69;100.00;52626.59;5075654;28;20199;-78
2023/01/06 05:07:17;;;;;;;0.90;0.80;;;;;;;-145.69;100.00;52632.53;5075620;28;20205;-78
2023/01/06 05:09:43;;;;;;;0.80;0.80;;;;;;;-145.69;100.00;52618.66;5075678;28;20205;-78
2023/01/06 05:12:10;;;;;;;3.33;1.17;;;;;;;-145.69;100.00;52620.66;5075469;28;20205;-78
2023/01/06 05:14:37;;;;;;;1.13;0.80;;;;;;;-145.69;100.00;52632.53;5075476;28;20223;-79
2023/01/06 05:17:04;;;;;;;0.70;0.70;;;;;;;-145.69;100.00;52628.56;5075589;28;20199;-78
2023/01/06 05:19:30;;;;;;;1.03;0.70;;;;;;;-145.69;100.00;52622.63;5075417;28;20199;-79
2023/01/06 05:21:57;;;;;;;1.00;0.90;;;;;;;-145.69;100.00;52608.75;5075454;28;20202;-79
2023/01/06 05:24:23;;;;;;;3.40;0.73;;;;;;;-145.69;100.00;52598.84;5075330;28;20203;-78
2023/01/06 05:26:50;;;;;;;1.30;0.80;;;;;;;-145.69;100.00;52640.44;5074966;28;20199;-78
2023/01/06 05:29:16;;;;;;;0.70;0.70;;;;;;;-145.69;100.00;52630.53;5075258;28;20207;-79
2023/01/06 05:31:44;;;;;;;1.60;0.87;;;;;;;-145.69;100.00;52610.75;5075300;28;20199;-79
2023/01/06 05:34:11;;;;;;;2.63;0.93;;;;;;;-145.69;100.00;52640.44;5075284;28;20230;-79
2023/01/06 05:36:38;;;;;;;1.27;0.90;;;;;;;-145.69;100.00;52612.72;5074708;28;20286;-79
2023/01/06 05:39:04;;;;;;;0.80;0.80;;;;;;;-145.69;100.00;52642.44;5075158;28;20199;-79
2023/01/06 05:41:31;;;;;;;0.87;0.80;;;;;;;-145.69;100.00;52640.44;5074780;28;20198;-79
2023/01/06 05:43:58;;;;;;;0.67;0.67;;;;;;;-145.69;100.00;52608.75;5075235;28;20210;-79
2023/01/06 05:46:25;;;;;;;1.23;1.10;;;;;;;-145.69;100.00;52636.50;5074965;28;20294;-78
2023/01/06 05:48:53;;;;;;;1.10;1.00;;;;;;;-145.69;100.00;52626.59;5075057;28;20210;-78
2023/01/06 05:51:19;;;;;;;2.73;0.97;;;;;;;-145.69;100.00;52583.00;5074442;28;20198;-79
2023/01/06 05:53:47;;;;;;;2.37;1.50;;;;;;;-145.69;100.00;52632.53;5074696;28;20237;-78
2023/01/06 05:56:17;;;;;;;1.20;0.90;;;;;;;-145.69;100.00;52630.53;5073937;28;20206;-79
2023/01/06 05:58:45;;;;;;;1.50;0.80;;;;;;;-145.69;100.00;52618.66;5074527;28;20209;-78
2023/01/06 06:01:16;;;;;;;2.38;1.00;;;;;;;-145.69;100.00;52618.66;5074260;28;20430;-78
2023/01/06 06:03:42;;;;;;;1.00;0.90;;;;;;;-145.69;100.00;52616.69;5074668;28;20212;-79
2023/01/06 06:06:11;;;;;;;1.43;0.90;;;;;;;-145.69;100.00;52638.47;5074146;28;20677;-79
2023/01/06 06:08:37;;;;;;;1.57;0.90;;;;;;;-145.69;100.00;52612.72;5074447;28;20661;-78
2023/01/06 06:11:04;;;;;;;1.03;0.80;;;;;;;-145.69;100.00;52630.53;5074414;28;20657;-79
2023/01/06 06:13:31;;;;;;;1.10;1.00;;;;;;;-145.69;100.00;52600.84;5074499;28;20212;-79
2023/01/06 06:16:05;;;;;;;1.53;1.10;;;;;;;-145.69;100.00;52634.50;5074508;28;20202;-79
2023/01/06 06:18:31;;;;;;;1.10;1.00;;;;;;;-145.69;100.00;52618.66;5074031;28;20195;-79
2023/01/06 06:21:01;;;;;;;1.17;0.90;;;;;;;-145.69;100.00;52626.59;5074224;28;20219;-79
2023/01/06 06:23:28;;;;;;;3.40;0.90;;;;;;;-145.69;100.00;52598.84;5074315;28;20252;-79
2023/01/06 06:25:55;;;;;;;1.53;1.00;;;;;;;-145.69;100.00;52638.47;5074247;28;20207;-79
2023/01/06 06:28:21;;;;;;;1.80;1.10;;;;;;;-145.69;100.00;52626.59;5076363;28;20191;-79
2023/01/06 06:30:48;;;;;;;1.70;1.03;;;;;;;-145.69;100.00;52598.84;5077469;28;20561;-79
2023/01/06 06:33:14;;;;;;;1.43;1.10;;;;;;;-145.69;100.00;52638.47;5074031;28;20202;-79
2023/01/06 06:35:41;;;;;;;3.70;1.20;;;;;;;-145.69;100.00;52602.81;5073770;28;20252;-79
2023/01/06 06:38:07;;;;;;;1.20;1.10;;;;;;;-145.69;100.00;52648.38;5074220;28;20199;-80
2023/01/06 06:40:35;;;;;;;2.17;1.10;;;;;;;-145.69;100.00;52642.44;5073983;28;20213;-79
2023/01/06 06:43:02;;;;;;;1.73;1.30;;;;;;;-145.69;100.00;52634.50;5072849;28;20444;-79
2023/01/06 06:45:28;;;;;;;1.17;1.03;;;;;;;-145.69;100.00;52620.66;5073832;28;20206;-80
2023/01/06 06:47:55;;;;;;;2.07;1.20;;;;;;;-145.69;100.00;52616.69;5073438;28;20668;-79
2023/01/06 06:50:21;;;;;;;3.67;1.10;;;;;;;-145.69;100.00;52642.44;5073645;28;20557;-79
2023/01/06 06:52:48;;;;;;;2.30;1.20;;;;;;;-145.69;100.00;52614.72;5073859;28;20198;-79
2023/01/06 06:55:14;;;;;;;1.53;1.07;;;;;;;-145.69;100.00;52614.72;5073582;28;20226;-78
2023/01/06 06:57:42;;;;;;;1.53;1.20;;;;;;;-145.69;100.00;52630.53;5073698;28;20221;-79
2023/01/06 07:00:10;;;;;;;2.17;1.37;;;;;;;-145.69;100.00;52614.72;5074052;28;20205;-77
2023/01/06 07:02:36;;;;;;;3.77;1.30;;;;;;;-145.69;100.00;52642.44;5073508;28;20195;-79
2023/01/06 07:05:04;;;;;;;1.90;1.30;;;;;;;-145.69;100.00;52644.41;5073411;28;20692;-79
2023/01/06 07:07:30;;;;;;;3.13;1.20;;;;;;;-145.69;100.00;52634.50;5072820;28;20199;-78
2023/01/06 07:09:57;;;;;;;2.87;1.33;;;;;;;-145.69;100.00;52612.72;5073426;28;20206;-79
2023/01/06 07:12:23;;;;;;;2.93;1.20;;;;;;;-145.69;100.00;52642.44;5073406;28;20294;-78
2023/01/06 07:14:51;;;;;;;2.03;1.13;;;;;;;-145.69;100.00;52632.53;5073113;28;20227;-78
2023/01/06 07:17:17;;;;;;;2.33;1.10;;;;;;;-145.69;100.00;52616.69;5072998;28;20203;-79
2023/01/06 07:19:44;;;;;;;2.10;1.30;;;;;;;-145.69;100.00;52638.47;5073016;28;20569;-77
2023/01/06 07:22:10;;;;;;;2.73;1.10;;;;;;;-145.69;100.00;52612.72;5073398;28;20561;-79
2023/01/06 07:24:37;;;;;;;2.87;1.00;;;;;;;-145.69;100.00;52646.41;5072925;28;20684;-79
2023/01/06 07:27:03;;;;;;;1.40;1.10;;;;;;;-145.69;100.00;52640.44;5073221;28;20206;-79
2023/01/06 07:29:30;;;;;;;4.17;1.00;;;;;;;-145.69;100.00;52652.34;5072936;28;20210;-79
2023/01/06 07:31:58;;;;;;;5.73;1.50;;;;;;;-145.69;100.00;52630.53;5073330;28;20198;-79
2023/01/06 07:34:25;;;;;;;1.77;1.10;;;;;;;-145.69;100.00;52634.50;5073152;28;20622;-79
2023/01/06 07:36:51;;;;;;;5.87;1.33;;;;;;;-145.69;100.00;52644.41;5072953;28;20661;-79
2023/01/06 07:39:18;;;;;;;2.30;1.27;;;;;;;-145.69;100.00;52628.56;5073106;28;20202;-79
2023/01/06 07:41:44;;;;;;;2.60;1.20;;;;;;;-145.69;100.00;52644.41;5072705;28;20589;-79
2023/01/06 07:44:11;;;;;;;4.77;1.10;;;;;;;-145.69;100.00;52614.72;5072659;28;20203;-79
2023/01/06 07:46:37;;;;;;;1.03;1.00;;;;;;;-145.69;100.00;52648.38;5073099;28;20206;-79
2023/01/06 07:49:05;;;;;;;4.13;1.00;;;;;;;-145.69;100.00;52622.63;5072573;28;20203;-79
2023/01/06 07:51:31;;;;;;;1.83;1.10;;;;;;;-145.69;100.00;52624.59;5073015;28;20562;-79
2023/01/06 07:53:58;;;;;;;4.87;0.90;;;;;;;-145.69;100.00;52634.50;5072814;28;20202;-79
2023/01/06 07:56:24;;;;;;;2.00;1.20;;;;;;;-145.69;100.00;52634.50;5072718;28;20701;-79
2023/01/06 07:58:53;;;;;;;2.10;1.17;;;;;;;-145.69;100.00;52638.47;5072700;28;20205;-79
2023/01/06 08:01:20;;;;;;;4.33;1.20;;;;;;;-145.69;100.00;52638.47;5072929;28;20195;-78
2023/01/06 08:03:46;;;;;;;1.33;1.00;;;;;;;-145.69;100.00;52624.59;5072898;28;20202;-78
2023/01/06 08:06:14;;;;;;;2.70;1.00;;;;;;;-145.69;100.00;52610.75;5072787;28;20561;-79
2023/01/06 08:08:41;;;;;;;2.17;1.30;;;;;;;-145.69;100.00;52638.47;5072655;28;20199;-78
2023/01/06 08:11:10;;;;;;;1.30;1.13;;;;;;;-145.69;100.00;52640.44;5072512;28;20207;-79
2023/01/06 08:13:37;;;;;;;1.83;1.00;;;;;;;-145.69;100.00;52648.38;5072240;28;20203;-79
2023/01/06 08:16:04;;;;;;;1.20;1.10;;;;;;;-145.69;100.00;52618.66;5072400;28;20241;-78
2023/01/06 08:18:31;;;;;;;3.90;1.30;;;;;;;-145.69;100.00;52646.41;5073998;28;20546;-78
2023/01/06 08:21:00;;;;;;;2.03;1.30;;;;;;;-145.69;100.00;52602.81;5076501;28;20565;-79
2023/01/06 08:23:28;;;;;;;1.67;1.20;;;;;;;-145.69;100.00;52644.41;5076016;28;20248;-78
2023/01/06 08:26:01;;;;;;;2.00;1.30;;;;;;;-145.69;100.00;52624.59;5076114;28;20561;-79
2023/01/06 08:28:28;;;;;;;2.10;1.20;;;;;;;-145.69;100.00;52658.28;5076482;28;20558;-78
2023/01/06 08:30:54;;;;;;;2.30;0.97;;;;;;;-145.69;100.00;52654.31;5075938;28;20210;-78
2023/01/06 08:33:22;;;;;;;2.27;1.30;;;;;;;-145.69;100.00;52610.75;5076461;28;20202;-78
2023/01/06 08:35:49;;;;;;;4.13;1.10;;;;;;;-145.69;100.00;52594.91;5075697;28;20607;-78
2023/01/06 08:38:16;;;;;;;1.97;0.83;;;;;;;-145.69;100.00;52602.81;5076038;28;20653;-78
2023/01/06 08:40:44;;;;;;;0.90;0.90;;;;;;;-145.69;100.00;52604.81;5076379;28;20229;-79
2023/01/06 08:43:10;;;;;;;2.43;0.90;;;;;;;-145.69;100.00;52573.13;5075957;28;20249;-79
2023/01/06 08:45:39;;;;;;;0.97;0.87;;;;;;;-145.69;100.00;52630.53;5076108;28;20711;-78
2023/01/06 08:48:05;;;;;;;1.80;0.93;;;;;;;-145.69;100.00;52590.94;5075761;28;20191;-77
2023/01/06 08:50:32;;;;;;;0.60;0.60;;;;;;;-145.69;100.00;52592.91;5076382;28;20203;-78
2023/01/06 08:52:58;;;;;;;1.27;1.17;;;;;;;-145.69;100.00;52616.69;5075924;28;20198;-78
2023/01/06 08:55:25;;;;;;;1.10;0.93;;;;;;;-145.69;100.00;52592.91;5076155;28;20227;-78
2023/01/06 08:57:53;;;;;;;2.17;1.47;;;;;;;-145.69;100.00;52610.75;5075890;28;20203;-79
2023/01/06 09:00:19;;;;;;;2.77;2.00;;;;;;;-145.69;100.00;52608.75;5075960;28;20221;-78
2023/01/06 09:02:46;;;;;;;1.00;0.90;;;;;;;-145.69;100.00;52586.97;5075855;28;20203;-78
2023/01/06 09:05:12;;;;;;;0.87;0.80;;;;;;;-145.69;100.00;52590.94;5075881;28;20206;-77
2023/01/06 09:07:39;;;;;;;1.00;0.90;;;;;;;-145.69;100.00;52579.06;5075697;28;20205;-78
2023/01/06 09:10:07;;;;;;;2.03;1.30;;;;;;;-145.69;100.00;52598.84;5075876;28;20545;-78
2023/01/06 09:12:33;;;;;;;1.23;1.03;;;;;;;-145.69;100.00;52579.06;5075869;28;20203;-79
2023/01/06 09:15:01;;;;;;;1.40;1.20;;;;;;;-145.69;100.00;52588.97;5075536;28;20222;-78
2023/01/06 09:17:28;;;;;;;1.17;0.83;;;;;;;-145.69;100.00;52590.94;5075512;28;20205;-78
2023/01/06 09:19:54;;;;;;;1.87;1.27;;;;;;;-145.69;100.00;52579.06;5075239;28;20199;-79
2023/01/06 09:22:21;;;;;;;1.73;1.20;;;;;;;-145.69;100.00;52575.09;5075508;28;20229;-79
2023/01/06 09:24:47;;;;;;;3.90;1.10;;;;;;;-145.69;100.00;52583.00;5075323;28;20209;-79
2023/01/06 09:27:14;;;;;;;1.40;1.20;;;;;;;-145.69;100.00;52622.63;5075252;28;20202;-79
2023/01/06 09:29:40;;;;;;;1.83;0.90;;;;;;;-145.69;100.00;52586.97;5074128;28;20763;-79
2023/01/06 09:32:08;;;;;;;1.23;1.00;;;;;;;-145.69;100.00;52622.63;5075287;28;20210;-79
2023/01/06 09:34:35;;;;;;;1.53;1.00;;;;;;;-145.69;100.00;52612.72;5075156;28;20198;-79
2023/01/06 09:37:02;;;;;;;1.80;1.00;;;;;;;-145.69;100.00;52614.72;5075478;28;20199;-79
2023/01/06 09:39:28;;;;;;;1.67;1.00;;;;;;;-145.69;100.00;52604.81;5075311;28;20209;-80
2023/01/06 09:42:16;;;;;;;4.93;1.00;;;;;;;-145.69;100.00;52600.84;5074832;28;20375;-79
2023/01/06 09:44:48;;;;;;;3.07;1.10;;;;;;;-145.69;100.00;52610.75;5068896;28;20195;-79
2023/01/06 09:47:20;;;;;;;1.37;1.17;;;;;;;-145.69;100.00;52547.38;5054852;28;20207;-79
2023/01/06 09:49:51;;;;;;;2.23;1.13;;;;;;;-145.69;100.00;52557.28;5071932;28;20190;-80
2023/01/06 09:52:26;;;;;;;1.13;0.97;;;;;;;-145.69;100.00;52628.56;5054683;28;20196;-79
2023/01/06 09:54:57;;;;;;;1.10;1.00;;;;;;;-145.69;100.00;52588.97;5054209;28;20290;-79
2023/01/06 09:57:30;;;;;;;1.27;0.90;;;;;;;-145.69;100.00;52581.03;5054690;28;20200;-80
2023/01/06 10:00:00;;;;;;;1.07;0.80;;;;;;;-145.69;100.00;52581.03;5054766;28;20210;-80
2023/01/06 10:02:33;;;;;;;1.60;0.90;;;;;;;-145.69;100.00;52579.06;5054809;28;20196;-80
2023/01/06 10:04:59;;;;;;;1.07;0.87;;;;;;;-145.69;100.00;52600.84;5068447;28;20199;-80
2023/01/06 10:07:30;;;;;;;1.93;1.20;;;;;;;-145.69;100.00;52585.00;5074510;28;20203;-80
2023/01/06 10:10:10;;;;;;;2.07;1.50;;;;;;;-145.69;100.00;52606.78;5074381;28;20203;-79
2023/01/06 10:12:50;;;;;;;2.13;1.70;;;;;;;-145.69;100.00;52559.25;5073509;28;20434;-79
2023/01/06 10:15:24;;;;;;;2.63;2.00;;;;;;;-145.69;100.00;52592.91;5074397;28;20222;-80
2023/01/06 10:18:01;;;;;;;2.47;1.50;;;;;;;-145.69;100.00;52622.63;5074173;28;20210;-79
2023/01/06 10:20:52;;;;;;;2.00;1.10;;;;;;;-145.69;100.00;52590.94;5073347;28;20191;-78
2023/01/06 10:23:40;;;;;;;1.97;1.40;;;;;;;-145.69;100.00;52575.09;5074171;28;20286;-77
2023/01/06 10:26:12;;;;;;;1.70;1.40;;;;;;;-145.69;100.00;52559.25;5074326;28;20195;-79
2023/01/06 10:28:42;;;;;;;3.23;1.37;;;;;;;-145.69;100.00;52618.66;5070679;28;20285;-79
2023/01/06 10:31:13;;;;;;;2.73;1.80;;;;;;;-145.69;100.00;52614.72;5074234;28;20311;-78
2023/01/06 10:33:44;;;;;;;3.70;1.13;;;;;;;-145.69;100.00;52590.94;5074320;28;20214;-78
2023/01/06 10:36:12;;;;;;;1.53;1.10;;;;;;;-145.69;100.00;52612.72;5073999;28;20230;-79
2023/01/06 10:38:41;;;;;;;1.27;1.17;;;;;;;-145.69;100.00;52618.66;5073915;28;20205;-78
2023/01/06 10:41:18;;;;;;;1.37;1.20;;;;;;;-145.69;100.00;52545.38;5073717;28;20679;-78
2023/01/06 10:43:44;;;;;;;2.17;1.67;;;;;;;-145.69;100.00;52575.09;5073184;28;20581;-78
2023/01/06 10:46:16;;;;;;;2.30;1.73;;;;;;;-145.69;100.00;52586.97;5073672;28;20206;-76
2023/01/06 10:48:48;;;;;;;3.33;1.70;;;;;;;-145.69;100.00;52547.38;5073558;28;20578;-77
2023/01/06 10:51:34;;;;;;;3.00;1.20;;;;;;;-145.69;100.00;52604.81;5073794;28;20535;-78
2023/01/06 10:54:05;;;;;;;2.63;2.00;;;;;;;-145.69;100.00;52586.97;5072537;28;20438;-77
2023/01/06 10:56:34;;;;;;;4.97;1.90;;;;;;;-145.69;100.00;52575.09;5073671;28;20234;-77
2023/01/06 10:59:07;;;;;;;2.97;1.70;;;;;;;-145.69;100.00;52594.91;5073587;28;20202;-79
2023/01/06 11:01:47;;;;;;;68.17;22.23;;;;;;;-145.69;100.00;52594.91;5072982;28;20199;-79
2023/01/06 11:04:17;;;;;;;2.30;2.10;;;;;;;-145.69;100.00;52590.94;5073499;28;20202;-79
2023/01/06 11:06:46;;;;;;;1.30;1.10;;;;;;;-145.69;100.00;52555.28;5073275;28;20213;-80
2023/01/06 11:09:29;;;;;;;1.47;1.30;;;;;;;-145.69;100.00;52592.91;5073901;28;20225;-80
2023/01/06 11:11:59;;;;;;;3.27;2.17;;;;;;;-145.69;100.00;52557.28;5073460;28;20206;-80
2023/01/06 11:14:30;;;;;;;3.03;2.50;;;;;;;-145.69;100.00;52543.41;5073364;28;20289;-80
2023/01/06 11:17:00;;;;;;;2.57;2.07;;;;;;;-145.69;100.00;52537.47;5072233;28;20228;-80
2023/01/06 11:19:36;;;;;;;1.20;1.10;;;;;;;-145.69;100.00;52571.13;5070961;28;20195;-80
2023/01/06 11:22:04;;;;;;;1.23;1.13;;;;;;;-145.69;100.00;52555.28;5071464;28;20229;-80
2023/01/06 11:24:31;;;;;;;2.27;1.67;;;;;;;-145.69;100.00;52561.22;5071086;28;20665;-80
2023/01/06 11:26:59;;;;;;;2.40;1.83;;;;;;;-145.69;100.00;52577.06;5069668;28;20187;-79